Time;durP1;ratioP1;P1;durP2;ratioP2;P2;SDS_P1;SDS_P2;PMS_P1;PMS_P2;Temp;Humidity;BMP_temperature;BMP_pressure;BME280_temperature;BME280_humidity;BME280_pressure;Samples;Min_cycle;Max_cycle;Signal;HPM_P1;HPM_P2
2023/07/17 00:00:49;;;;;;;;;;;16.80;99.90;;;;;;5024436;28;19920;-83
2023/07/17 00:03:15;;;;;;;;;;;16.80;99.90;;;;;;5006838;28;20411;-83
2023/07/17 00:05:40;;;;;;;;;;;16.90;99.90;;;;;;5002982;28;19963;-82
2023/07/17 00:08:07;;;;;;;;;;;16.90;99.90;;;;;;5006864;28;19919;-82
2023/07/17 00:10:33;;;;;;;;;;;17.00;99.90;;;;;;5005295;28;20003;-82
2023/07/17 00:12:58;;;;;;;;;;;17.00;99.90;;;;;;5021681;28;20744;-81
2023/07/17 00:15:24;;;;;;;;;;;17.10;99.90;;;;;;5023842;28;19972;-81
2023/07/17 00:17:49;;;;;;;;;;;17.10;99.90;;;;;;5001176;28;20420;-82
2023/07/17 00:20:15;;;;;;;;;;;17.10;99.90;;;;;;5038258;28;20058;-81
2023/07/17 00:22:40;;;;;;;;;;;17.10;99.90;;;;;;5022388;28;20289;-82
2023/07/17 00:25:06;;;;;;;;;;;17.10;99.90;;;;;;5005577;28;19915;-81
2023/07/17 00:27:34;;;;;;;;;;;17.10;99.90;;;;;;5018954;28;20669;-80
2023/07/17 00:29:59;;;;;;;;;;;17.10;99.90;;;;;;5023513;28;20005;-80
2023/07/17 00:32:25;;;;;;;;;;;17.10;99.90;;;;;;5000740;28;20047;-81
2023/07/17 00:34:51;;;;;;;;;;;17.10;99.90;;;;;;5001288;28;19917;-82
2023/07/17 00:37:16;;;;;;;;;;;17.10;99.90;;;;;;5001127;28;19909;-81
2023/07/17 00:39:43;;;;;;;;;;;17.10;99.90;;;;;;5001371;28;19921;-80
2023/07/17 00:42:09;;;;;;;;;;;17.10;99.90;;;;;;5022680;28;19944;-82
2023/07/17 00:44:38;;;;;;;;;;;17.10;99.90;;;;;;5001407;28;20357;-82
2023/07/17 00:47:04;;;;;;;;;;;17.00;99.90;;;;;;5023683;28;20376;-80
2023/07/17 00:49:30;;;;;;;;;;;17.00;99.90;;;;;;5005900;28;19913;-80
2023/07/17 00:51:56;;;;;;;;;;;17.00;99.90;;;;;;5032866;28;19917;-81
2023/07/17 00:54:22;;;;;;;;;;;17.00;99.90;;;;;;5040495;28;20162;-83
2023/07/17 00:56:48;;;;;;;;;;;17.00;99.90;;;;;;5050425;28;19920;-79
2023/07/17 00:59:14;;;;;;;;;;;16.90;99.90;;;;;;5038402;28;19917;-81
2023/07/17 01:01:40;;;;;;;;;;;16.90;99.90;;;;;;5011317;28;20312;-81
2023/07/17 01:04:06;;;;;;;;;;;16.90;99.90;;;;;;5022426;28;19921;-79
2023/07/17 01:06:31;;;;;;;;;;;16.90;99.90;;;;;;5023783;28;20124;-81
2023/07/17 01:08:57;;;;;;;;;;;16.80;99.90;;;;;;5001472;28;19921;-81
2023/07/17 01:11:23;;;;;;;;;;;16.80;99.90;;;;;;5023841;28;19913;-81
2023/07/17 01:13:54;;;;;;;;;;;16.80;99.90;;;;;;5001310;28;19924;-81
2023/07/17 01:16:20;;;;;;;;;;;16.80;99.90;;;;;;4998072;28;19935;-81
2023/07/17 01:18:46;;;;;;;;;;;16.80;99.90;;;;;;5024481;28;19913;-81
2023/07/17 01:21:12;;;;;;;;;;;16.80;99.90;;;;;;4999981;28;19924;-80
2023/07/17 01:23:38;;;;;;;;;;;16.80;99.90;;;;;;5000332;28;19917;-81
2023/07/17 01:26:13;;;;;;;;;;;16.70;99.90;;;;;;5000931;28;19924;-81
2023/07/17 01:28:39;;;;;;;;;;;16.80;99.90;;;;;;5018328;28;19913;-81
2023/07/17 01:31:05;;;;;;;;;;;16.80;99.90;;;;;;5001089;28;19913;-80
2023/07/17 01:33:31;;;;;;;;;;;16.80;99.90;;;;;;5022945;28;20651;-81
2023/07/17 01:35:56;;;;;;;;;;;16.90;99.90;;;;;;5000276;28;19916;-81
2023/07/17 01:38:23;;;;;;;;;;;16.80;99.90;;;;;;5001381;28;19941;-81
2023/07/17 01:40:48;;;;;;;;;;;16.70;99.90;;;;;;5002748;28;20019;-82
2023/07/17 01:43:14;;;;;;;;;;;16.70;99.90;;;;;;5004316;28;20012;-81
2023/07/17 01:45:39;;;;;;;;;;;16.60;99.90;;;;;;5023223;28;19919;-80
2023/07/17 01:48:05;;;;;;;;;;;16.60;99.90;;;;;;5022988;28;19978;-80
2023/07/17 01:50:31;;;;;;;;;;;16.60;99.90;;;;;;5004468;28;20222;-81
2023/07/17 01:52:57;;;;;;;;;;;16.50;99.90;;;;;;4999995;28;19919;-81
2023/07/17 01:55:23;;;;;;;;;;;16.50;99.90;;;;;;5000501;28;20400;-82
2023/07/17 01:57:51;;;;;;;;;;;16.50;99.90;;;;;;5000192;28;20035;-81
2023/07/17 02:00:17;;;;;;;;;;;16.50;99.90;;;;;;5018912;28;19991;-81
2023/07/17 02:02:43;;;;;;;;;;;16.40;99.90;;;;;;5022012;28;19996;-81
2023/07/17 02:05:09;;;;;;;;;;;16.40;99.90;;;;;;5039047;28;19927;-81
2023/07/17 02:07:37;;;;;;;;;;;16.40;99.90;;;;;;5003860;28;20617;-81
2023/07/17 02:10:03;;;;;;;;;;;16.30;99.90;;;;;;5038873;28;19947;-81
2023/07/17 02:12:29;;;;;;;;;;;16.30;99.90;;;;;;5003219;28;19959;-81
2023/07/17 02:14:54;;;;;;;;;;;16.20;99.90;;;;;;5005951;28;19960;-81
2023/07/17 02:17:20;;;;;;;;;;;16.20;99.90;;;;;;5022197;28;19917;-81
2023/07/17 02:19:45;;;;;;;;;;;16.20;99.90;;;;;;5021077;28;19913;-80
2023/07/17 02:22:11;;;;;;;;;;;16.10;99.90;;;;;;5023091;28;19967;-80
2023/07/17 02:24:40;;;;;;;;;;;16.10;99.90;;;;;;5004190;28;19917;-80
2023/07/17 02:27:06;;;;;;;;;;;16.10;99.90;;;;;;5005239;28;19971;-80
2023/07/17 02:29:34;;;;;;;;;;;16.10;99.90;;;;;;5036848;28;19972;-81
2023/07/17 02:31:59;;;;;;;;;;;16.10;99.90;;;;;;4999860;28;19955;-81
2023/07/17 02:34:25;;;;;;;;;;;16.00;99.90;;;;;;5004533;28;19921;-81
2023/07/17 02:36:52;;;;;;;;;;;16.00;99.90;;;;;;5000036;28;19913;-80
2023/07/17 02:39:17;;;;;;;;;;;16.00;99.90;;;;;;5022875;28;19949;-81
2023/07/17 02:41:45;;;;;;;;;;;15.90;99.90;;;;;;5022566;28;20408;-80
2023/07/17 02:44:11;;;;;;;;;;;15.90;99.90;;;;;;5020633;28;19917;-80
2023/07/17 02:46:39;;;;;;;;;;;15.90;99.90;;;;;;5003244;28;19971;-79
2023/07/17 02:49:07;;;;;;;;;;;15.80;99.90;;;;;;5021452;28;19919;-81
2023/07/17 02:51:32;;;;;;;;;;;15.90;99.90;;;;;;5003556;28;20316;-81
2023/07/17 02:53:58;;;;;;;;;;;15.80;99.90;;;;;;4999013;28;19917;-80
2023/07/17 02:56:23;;;;;;;;;;;15.80;99.90;;;;;;5000458;28;19912;-80
2023/07/17 02:58:52;;;;;;;;;;;15.80;99.90;;;;;;5022901;28;20380;-80
2023/07/17 03:01:18;;;;;;;;;;;15.80;99.90;;;;;;5020536;28;19961;-81
2023/07/17 03:03:46;;;;;;;;;;;15.80;99.90;;;;;;5003416;28;19960;-82
2023/07/17 03:06:11;;;;;;;;;;;15.80;99.90;;;;;;5021610;28;20348;-80
2023/07/17 03:08:37;;;;;;;;;;;15.80;99.90;;;;;;4999567;28;19916;-82
2023/07/17 03:11:05;;;;;;;;;;;15.80;99.90;;;;;;5021467;28;20347;-81
2023/07/17 03:13:31;;;;;;;;;;;15.80;99.90;;;;;;5036422;28;20822;-81
2023/07/17 03:15:58;;;;;;;;;;;15.70;99.90;;;;;;5021639;28;19986;-81
2023/07/17 03:18:24;;;;;;;;;;;15.70;99.90;;;;;;5021064;28;19916;-81
2023/07/17 03:20:51;;;;;;;;;;;15.70;99.90;;;;;;5003341;28;19995;-82
2023/07/17 03:23:21;;;;;;;;;;;15.60;99.90;;;;;;5020783;28;20452;-82
2023/07/17 03:25:49;;;;;;;;;;;15.60;99.90;;;;;;5021834;28;19918;-82
2023/07/17 03:28:15;;;;;;;;;;;15.60;99.90;;;;;;5003648;28;19912;-81
2023/07/17 03:30:41;;;;;;;;;;;15.50;99.90;;;;;;4996203;28;20376;-81
2023/07/17 03:33:09;;;;;;;;;;;15.50;99.90;;;;;;5018136;28;19921;-81
2023/07/17 03:35:43;;;;;;;;;;;15.50;99.90;;;;;;5003177;28;19992;-81
2023/07/17 03:38:12;;;;;;;;;;;15.50;99.90;;;;;;5019234;28;19955;-80
2023/07/17 03:40:40;;;;;;;;;;;15.50;99.90;;;;;;5037408;28;20339;-80
2023/07/17 03:43:06;;;;;;;;;;;15.40;99.90;;;;;;5007306;28;19925;-80
2023/07/17 03:45:31;;;;;;;;;;;15.40;99.90;;;;;;4998346;28;19909;-79
2023/07/17 03:47:57;;;;;;;;;;;15.40;99.90;;;;;;5004088;28;19920;-81
2023/07/17 03:50:23;;;;;;;;;;;15.40;99.90;;;;;;4997625;28;19947;-82
2023/07/17 03:52:51;;;;;;;;;;;15.40;99.90;;;;;;5021815;28;19917;-81
2023/07/17 03:55:17;;;;;;;;;;;15.40;99.90;;;;;;4996786;28;20020;-80
2023/07/17 03:57:42;;;;;;;;;;;15.30;99.90;;;;;;5021508;28;20365;-80
2023/07/17 04:00:12;;;;;;;;;;;15.40;99.90;;;;;;5020395;28;19913;-80
2023/07/17 04:02:38;;;;;;;;;;;15.40;99.90;;;;;;5021473;28;19917;-80
2023/07/17 04:05:03;;;;;;;;;;;15.30;99.90;;;;;;5004441;28;19935;-80
2023/07/17 04:07:32;;;;;;;;;;;15.30;99.90;;;;;;5005403;28;20305;-81
2023/07/17 04:09:58;;;;;;;;;;;15.40;99.90;;;;;;5021525;28;19954;-80
2023/07/17 04:12:25;;;;;;;;;;;15.40;99.90;;;;;;4996359;28;19925;-81
2023/07/17 04:14:50;;;;;;;;;;;15.40;99.90;;;;;;5016688;28;19924;-80
2023/07/17 04:17:16;;;;;;;;;;;15.40;99.90;;;;;;5019222;28;19925;-80
2023/07/17 04:19:41;;;;;;;;;;;15.30;99.90;;;;;;5003725;28;19917;-80
2023/07/17 04:22:07;;;;;;;;;;;15.30;99.90;;;;;;5020517;28;19924;-81
2023/07/17 04:24:33;;;;;;;;;;;15.30;99.90;;;;;;4995127;28;20397;-80
2023/07/17 04:26:59;;;;;;;;;;;15.30;99.90;;;;;;5019674;28;20012;-80
2023/07/17 04:29:27;;;;;;;;;;;15.40;99.90;;;;;;5020174;28;20003;-81
2023/07/17 04:31:56;;;;;;;;;;;15.40;99.90;;;;;;5022798;28;19923;-80
2023/07/17 04:34:25;;;;;;;;;;;15.30;99.90;;;;;;5005731;28;19927;-80
2023/07/17 04:36:54;;;;;;;;;;;15.30;99.90;;;;;;5003878;28;19995;-81
2023/07/17 04:39:23;;;;;;;;;;;15.40;99.90;;;;;;5024104;28;19909;-81
2023/07/17 04:41:49;;;;;;;;;;;15.40;99.90;;;;;;5022454;28;19917;-80
2023/07/17 04:44:15;;;;;;;;;;;15.40;99.90;;;;;;5023734;28;20407;-80
2023/07/17 04:46:42;;;;;;;;;;;15.40;99.90;;;;;;5022824;28;19909;-81
2023/07/17 04:49:07;;;;;;;;;;;15.40;99.90;;;;;;4998338;28;20059;-80
2023/07/17 04:51:41;;;;;;;;;;;15.50;99.90;;;;;;5002727;28;20009;-81
2023/07/17 04:54:13;;;;;;;;;;;15.50;99.90;;;;;;5023455;28;19916;-80
2023/07/17 04:56:38;;;;;;;;;;;15.50;99.90;;;;;;4999968;28;19916;-81
2023/07/17 04:59:07;;;;;;;;;;;15.50;99.90;;;;;;5022363;28;19909;-80
2023/07/17 05:01:39;;;;;;;;;;;15.60;99.90;;;;;;4999387;28;19929;-80
2023/07/17 05:04:08;;;;;;;;;;;15.60;99.90;;;;;;5022503;28;20361;-80
2023/07/17 05:06:36;;;;;;;;;;;15.60;99.90;;;;;;5018279;28;20385;-81
2023/07/17 05:09:07;;;;;;;;;;;15.70;99.90;;;;;;5022428;28;19983;-81
2023/07/17 05:11:35;;;;;;;;;;;15.70;99.90;;;;;;4999945;28;20012;-81
2023/07/17 05:14:07;;;;;;;;;;;15.70;99.90;;;;;;5001856;28;19916;-81
2023/07/17 05:16:35;;;;;;;;;;;15.70;99.90;;;;;;5003723;28;20336;-81
2023/07/17 05:19:01;;;;;;;;;;;15.70;99.90;;;;;;5037455;28;19919;-79
2023/07/17 05:21:29;;;;;;;;;;;15.80;99.90;;;;;;5022261;28;19921;-81
2023/07/17 05:23:57;;;;;;;;;;;15.80;99.90;;;;;;5017114;28;20356;-81
2023/07/17 05:26:25;;;;;;;;;;;15.80;99.90;;;;;;5021549;28;19913;-81
2023/07/17 05:28:54;;;;;;;;;;;15.80;99.90;;;;;;5004757;28;19913;-79
2023/07/17 05:31:19;;;;;;;;;;;15.90;99.90;;;;;;5021158;28;20013;-81
2023/07/17 05:33:45;;;;;;;;;;;15.90;99.90;;;;;;5022088;28;20017;-80
2023/07/17 05:36:10;;;;;;;;;;;15.90;99.90;;;;;;5024016;28;19913;-81
2023/07/17 05:38:36;;;;;;;;;;;15.90;99.90;;;;;;5020466;28;19963;-80
2023/07/17 05:41:05;;;;;;;;;;;16.00;99.90;;;;;;5023225;28;20675;-81
2023/07/17 05:43:31;;;;;;;;;;;16.00;99.90;;;;;;5020108;28;19913;-82
2023/07/17 05:45:57;;;;;;;;;;;16.10;99.90;;;;;;5007337;28;19924;-80
2023/07/17 05:48:23;;;;;;;;;;;16.10;99.90;;;;;;5022828;28;19917;-81
2023/07/17 05:50:49;;;;;;;;;;;16.10;99.90;;;;;;5023659;28;19963;-80
2023/07/17 05:53:14;;;;;;;;;;;16.20;99.90;;;;;;5021581;28;19942;-80
2023/07/17 05:55:41;;;;;;;;;;;16.20;99.90;;;;;;5022903;28;19992;-80
2023/07/17 05:58:07;;;;;;;;;;;16.20;99.90;;;;;;5023339;28;20380;-81
2023/07/17 06:00:33;;;;;;;;;;;16.30;99.90;;;;;;5004293;28;19944;-80
2023/07/17 06:02:58;;;;;;;;;;;16.30;99.90;;;;;;4998994;28;19940;-81
2023/07/17 06:05:24;;;;;;;;;;;16.40;99.90;;;;;;5003913;28;20262;-81
2023/07/17 06:07:49;;;;;;;;;;;16.40;99.90;;;;;;5037253;28;20385;-81
2023/07/17 06:10:15;;;;;;;;;;;16.50;99.90;;;;;;5021604;28;19916;-80
2023/07/17 06:12:42;;;;;;;;;;;16.50;99.90;;;;;;5001242;28;19916;-81
2023/07/17 06:15:08;;;;;;;;;;;16.50;99.90;;;;;;5005068;28;19913;-81
2023/07/17 06:17:37;;;;;;;;;;;16.50;99.90;;;;;;5037348;28;20282;-82
2023/07/17 06:20:04;;;;;;;;;;;16.60;99.90;;;;;;5022734;28;20384;-82
2023/07/17 06:22:30;;;;;;;;;;;16.60;99.90;;;;;;4998260;28;19913;-81
2023/07/17 06:24:56;;;;;;;;;;;16.70;99.90;;;;;;5019243;28;19917;-80
2023/07/17 06:27:21;;;;;;;;;;;16.70;99.90;;;;;;5002871;28;19913;-81
2023/07/17 06:29:48;;;;;;;;;;;16.80;99.90;;;;;;5022403;28;19966;-81
2023/07/17 06:32:20;;;;;;;;;;;16.80;99.90;;;;;;4999606;28;19920;-79
2023/07/17 06:34:49;;;;;;;;;;;16.90;99.90;;;;;;4997559;28;19908;-78
2023/07/17 06:37:18;;;;;;;;;;;17.00;99.90;;;;;;5016727;28;20391;-80
2023/07/17 06:39:43;;;;;;;;;;;17.10;99.90;;;;;;5021652;28;19925;-81
2023/07/17 06:42:10;;;;;;;;;;;17.10;99.90;;;;;;5000218;28;19917;-81
2023/07/17 06:44:39;;;;;;;;;;;17.10;99.90;;;;;;5004465;28;20365;-80
2023/07/17 06:47:17;;;;;;;;;;;17.10;99.90;;;;;;4999027;28;19913;-81
2023/07/17 06:49:58;;;;;;;;;;;17.00;99.90;;;;;;5020519;28;19909;-81
2023/07/17 06:52:29;;;;;;;;;;;17.10;99.90;;;;;;4997046;28;19917;-80
2023/07/17 06:54:54;;;;;;;;;;;17.20;99.90;;;;;;5017412;28;19917;-81
2023/07/17 06:57:24;;;;;;;;;;;17.40;99.90;;;;;;5020584;28;20065;-81
2023/07/17 06:59:52;;;;;;;;;;;17.50;99.90;;;;;;5021690;28;20087;-83
2023/07/17 07:02:18;;;;;;;;;;;17.70;99.90;;;;;;5003612;28;19976;-81
2023/07/17 07:04:44;;;;;;;;;;;17.90;99.90;;;;;;5019584;28;20003;-79
2023/07/17 07:07:16;;;;;;;;;;;18.10;99.90;;;;;;4998834;28;20048;-81
2023/07/17 07:09:45;;;;;;;;;;;18.30;99.90;;;;;;5036280;28;19928;-79
2023/07/17 07:12:13;;;;;;;;;;;18.30;99.90;;;;;;5017706;28;19909;-81
2023/07/17 07:14:41;;;;;;;;;;;18.40;99.90;;;;;;5021035;28;19917;-79
2023/07/17 07:17:09;;;;;;;;;;;18.40;99.90;;;;;;5002446;28;19917;-81
2023/07/17 07:19:39;;;;;;;;;;;18.40;99.90;;;;;;5021373;28;20003;-83
2023/07/17 07:22:08;;;;;;;;;;;18.50;99.90;;;;;;5036863;28;19920;-83
2023/07/17 07:24:38;;;;;;;;;;;18.40;99.90;;;;;;5020832;28;19917;-82
2023/07/17 07:27:04;;;;;;;;;;;18.50;99.90;;;;;;4999412;28;20035;-84
2023/07/17 07:29:29;;;;;;;;;;;18.40;99.90;;;;;;4998326;28;19909;-82
2023/07/17 07:32:01;;;;;;;;;;;18.40;99.90;;;;;;4998280;28;19912;-81
2023/07/17 07:34:29;;;;;;;;;;;18.30;99.90;;;;;;4998195;28;20003;-82
2023/07/17 07:36:55;;;;;;;;;;;18.20;99.90;;;;;;4998570;28;20280;-80
2023/07/17 07:39:22;;;;;;;;;;;18.30;99.90;;;;;;5021409;28;19917;-80
2023/07/17 07:41:51;;;;;;;;;;;18.30;99.90;;;;;;5020989;28;19976;-80
2023/07/17 07:44:22;;;;;;;;;;;18.40;99.90;;;;;;5015020;28;19925;-81
2023/07/17 07:46:50;;;;;;;;;;;18.40;99.90;;;;;;5056116;28;19913;-80
2023/07/17 07:49:18;;;;;;;;;;;18.50;99.90;;;;;;5039362;28;19917;-81
2023/07/17 07:51:44;;;;;;;;;;;18.50;99.90;;;;;;5019900;28;19903;-81
2023/07/17 07:54:09;;;;;;;;;;;18.60;99.90;;;;;;5032082;28;20000;-81
2023/07/17 07:56:35;;;;;;;;;;;18.70;99.90;;;;;;4997698;28;20115;-82
2023/07/17 07:59:01;;;;;;;;;;;18.70;99.90;;;;;;5005291;28;20296;-82
2023/07/17 08:01:26;;;;;;;;;;;18.70;99.90;;;;;;5002093;28;20000;-81
2023/07/17 08:03:52;;;;;;;;;;;18.70;99.90;;;;;;4999109;28;20380;-81
2023/07/17 08:06:20;;;;;;;;;;;18.70;99.90;;;;;;5004787;28;20007;-80
2023/07/17 08:08:47;;;;;;;;;;;18.70;99.90;;;;;;5003901;28;20324;-80
2023/07/17 08:11:15;;;;;;;;;;;18.80;99.90;;;;;;5006268;28;19919;-80
2023/07/17 08:13:40;;;;;;;;;;;19.00;99.90;;;;;;5005560;28;20004;-82
2023/07/17 08:16:06;;;;;;;;;;;19.10;99.90;;;;;;5019267;28;20351;-80
2023/07/17 08:18:33;;;;;;;;;;;19.10;99.90;;;;;;5024578;28;20007;-81
2023/07/17 08:21:02;;;;;;;;;;;19.10;99.90;;;;;;5001588;28;19917;-83
2023/07/17 08:23:31;;;;;;;;;;;19.10;99.90;;;;;;5000720;28;19952;-81
2023/07/17 08:26:05;;;;;;;;;;;19.30;99.90;;;;;;5023328;28;19928;-81
2023/07/17 08:28:33;;;;;;;;;;;19.50;99.90;;;;;;5023543;28;19917;-82
2023/07/17 08:30:58;;;;;;;;;;;19.60;99.90;;;;;;5001433;28;20318;-81
2023/07/17 08:33:27;;;;;;;;;;;19.70;99.90;;;;;;5006744;28;20032;-81
2023/07/17 08:35:52;;;;;;;;;;;19.90;99.90;;;;;;5018374;28;20000;-80
2023/07/17 08:38:19;;;;;;;;;;;19.90;99.90;;;;;;5023664;28;19991;-82
2023/07/17 08:40:50;;;;;;;;;;;19.90;99.90;;;;;;5001820;28;19966;-80
2023/07/17 08:43:16;;;;;;;;;;;19.80;99.90;;;;;;5000746;28;20293;-83
2023/07/17 08:45:42;;;;;;;;;;;19.80;99.90;;;;;;5023939;28;19909;-82
2023/07/17 08:48:08;;;;;;;;;;;19.90;99.90;;;;;;5021255;28;19917;-81
2023/07/17 08:50:34;;;;;;;;;;;20.10;99.90;;;;;;5005701;28;19913;-82
2023/07/17 08:53:00;;;;;;;;;;;20.20;99.90;;;;;;5023160;28;19909;-80
2023/07/17 08:55:29;;;;;;;;;;;20.40;99.90;;;;;;4999486;28;22295;-79
2023/07/17 08:58:01;;;;;;;;;;;20.40;99.90;;;;;;5000105;28;19932;-82
2023/07/17 09:00:31;;;;;;;;;;;20.30;99.90;;;;;;4999891;28;20281;-82
2023/07/17 09:03:02;;;;;;;;;;;20.20;99.90;;;;;;5039497;28;20270;-83
2023/07/17 09:05:45;;;;;;;;;;;20.30;99.90;;;;;;5021066;28;19916;-79
2023/07/17 09:08:13;;;;;;;;;;;20.40;99.90;;;;;;5022062;28;19909;-81
2023/07/17 09:10:39;;;;;;;;;;;20.60;99.90;;;;;;5022530;28;20344;-83
2023/07/17 09:13:07;;;;;;;;;;;20.70;99.90;;;;;;5003115;28;19917;-81
2023/07/17 09:15:33;;;;;;;;;;;20.90;99.90;;;;;;5002217;28;19917;-82
2023/07/17 09:18:02;;;;;;;;;;;21.00;99.90;;;;;;5002951;28;19927;-80
2023/07/17 09:20:28;;;;;;;;;;;20.90;99.90;;;;;;5020682;28;19920;-82
2023/07/17 09:23:03;;;;;;;;;;;20.70;99.90;;;;;;5004119;28;20633;-81
2023/07/17 09:25:31;;;;;;;;;;;20.50;99.90;;;;;;5020221;28;19913;-82
2023/07/17 09:27:57;;;;;;;;;;;20.30;99.90;;;;;;4999285;28;19960;-83
2023/07/17 09:30:26;;;;;;;;;;;20.30;99.90;;;;;;5000249;28;19998;-82
2023/07/17 09:32:52;;;;;;;;;;;20.40;99.90;;;;;;5002633;28;19917;-82
2023/07/17 09:35:19;;;;;;;;;;;20.60;99.90;;;;;;5004679;28;20364;-82
2023/07/17 09:37:45;;;;;;;;;;;21.00;99.90;;;;;;5023201;28;19943;-82
2023/07/17 09:40:17;;;;;;;;;;;21.30;99.90;;;;;;5037574;28;19917;-80
2023/07/17 09:42:43;;;;;;;;;;;22.10;99.90;;;;;;5000240;28;19928;-83
2023/07/17 09:45:11;;;;;;;;;;;22.20;99.90;;;;;;5022082;28;19958;-81
2023/07/17 09:47:40;;;;;;;;;;;21.90;99.90;;;;;;5022686;28;20004;-83
2023/07/17 09:50:07;;;;;;;;;;;21.80;99.90;;;;;;5023468;28;19920;-84
2023/07/17 09:52:36;;;;;;;;;;;22.60;99.90;;;;;;4999925;28;19921;-86
2023/07/17 09:55:03;;;;;;;;;;;22.80;99.90;;;;;;5035596;28;19971;-83
2023/07/17 09:57:28;;;;;;;;;;;22.60;99.90;;;;;;4996499;28;19971;-85
2023/07/17 09:59:58;;;;;;;;;;;22.30;99.90;;;;;;5006084;28;20336;-83
2023/07/17 10:02:28;;;;;;;;;;;22.00;99.90;;;;;;4996673;28;20369;-84
2023/07/17 10:04:57;;;;;;;;;;;21.90;99.90;;;;;;4999698;28;19913;-83
2023/07/17 10:07:24;;;;;;;;;;;21.90;99.90;;;;;;4999431;28;20000;-85
2023/07/17 10:09:50;;;;;;;;;;;22.00;99.90;;;;;;5036795;28;19913;-84
2023/07/17 10:12:16;;;;;;;;;;;21.90;99.90;;;;;;4997288;28;20383;-83
2023/07/17 10:14:42;;;;;;;;;;;21.70;99.90;;;;;;5004246;28;19913;-82
2023/07/17 10:17:27;;;;;;;;;;;21.60;99.90;;;;;;5003103;28;19921;-85
2023/07/17 10:19:52;;;;;;;;;;;22.30;99.90;;;;;;5022553;28;19912;-84
2023/07/17 10:22:18;;;;;;;;;;;23.00;99.90;;;;;;5000567;28;19917;-81
2023/07/17 10:24:43;;;;;;;;;;;23.20;99.90;;;;;;5035851;28;20399;-82
2023/07/17 10:27:09;;;;;;;;;;;23.40;99.90;;;;;;4999134;28;19913;-83
2023/07/17 10:29:41;;;;;;;;;;;24.10;99.90;;;;;;5017753;28;19920;-85
2023/07/17 10:32:12;;;;;;;;;;;24.90;99.90;;;;;;5018864;28;19917;-83
2023/07/17 10:34:54;;;;;;;;;;;26.00;99.90;;;;;;5019648;28;19917;-81
2023/07/17 10:37:35;;;;;;;;;;;26.60;99.90;;;;;;5002709;28;19913;-81
2023/07/17 10:40:08;;;;;;;;;;;26.10;99.90;;;;;;5019544;28;19909;-82
2023/07/17 10:42:43;;;;;;;;;;;25.20;99.90;;;;;;4996156;28;19924;-81
2023/07/17 10:45:09;;;;;;;;;;;24.30;99.90;;;;;;4998635;28;20056;-81
2023/07/17 10:47:35;;;;;;;;;;;23.50;99.90;;;;;;5017873;28;19917;-80
2023/07/17 10:50:07;;;;;;;;;;;22.80;99.90;;;;;;5002734;28;19917;-80
2023/07/17 10:52:38;;;;;;;;;;;22.20;99.90;;;;;;5022486;28;19909;-81
2023/07/17 10:55:05;;;;;;;;;;;21.50;99.90;;;;;;5016858;28;19920;-81
2023/07/17 10:57:31;;;;;;;;;;;21.10;99.90;;;;;;4997120;28;20332;-81
2023/07/17 10:59:57;;;;;;;;;;;20.90;99.90;;;;;;5020193;28;19913;-80
2023/07/17 11:02:25;;;;;;;;;;;21.40;99.90;;;;;;4996863;28;19927;-81
2023/07/17 11:04:58;;;;;;;;;;;22.60;99.90;;;;;;5020977;28;20375;-81
2023/07/17 11:07:25;;;;;;;;;;;23.80;99.90;;;;;;4998498;28;19917;-83
2023/07/17 11:09:50;;;;;;;;;;;24.50;99.90;;;;;;5002606;28;20329;-83
2023/07/17 11:12:17;;;;;;;;;;;24.50;99.90;;;;;;4998067;28;20012;-82
2023/07/17 11:14:46;;;;;;;;;;;24.10;99.90;;;;;;4997634;28;20055;-83
2023/07/17 11:17:32;;;;;;;;;;;24.30;99.90;;;;;;5018427;28;21169;-83
2023/07/17 11:20:05;;;;;;;;;;;24.20;99.90;;;;;;4998446;28;20226;-82
2023/07/17 11:22:34;;;;;;;;;;;24.40;99.90;;;;;;4998205;28;20631;-83
2023/07/17 11:25:07;;;;;;;;;;;25.00;99.90;;;;;;5020692;28;19999;-81
2023/07/17 11:27:33;;;;;;;;;;;25.80;99.90;;;;;;5014453;28;19917;-81
2023/07/17 11:29:58;;;;;;;;;;;26.30;99.90;;;;;;5021593;28;19912;-81
2023/07/17 11:32:26;;;;;;;;;;;26.00;99.90;;;;;;5003279;28;19917;-81
2023/07/17 11:34:54;;;;;;;;;;;25.60;99.90;;;;;;5021259;28;19909;-80
2023/07/17 11:37:31;;;;;;;;;;;25.90;99.90;;;;;;5003274;28;20685;-80
2023/07/17 11:40:06;;;;;;;;;;;25.70;99.90;;;;;;5021994;28;19921;-81
2023/07/17 11:42:51;;;;;;;;;;;26.00;99.90;;;;;;5026092;28;20107;-82
2023/07/17 11:45:19;;;;;;;;;;;26.30;99.90;;;;;;5022213;28;19921;-80
2023/07/17 11:47:44;;;;;;;;;;;25.90;99.90;;;;;;5001536;28;19917;-81
2023/07/17 11:50:13;;;;;;;;;;;25.30;99.90;;;;;;5036793;28;19917;-79
2023/07/17 11:52:39;;;;;;;;;;;24.80;99.90;;;;;;5020596;28;19917;-81
2023/07/17 11:55:04;;;;;;;;;;;24.20;99.90;;;;;;5002491;28;19913;-82
2023/07/17 11:57:40;;;;;;;;;;;23.80;99.90;;;;;;5024631;28;20434;-82
2023/07/17 12:00:07;;;;;;;;;;;23.50;99.90;;;;;;5024053;28;21776;-81
2023/07/17 12:02:33;;;;;;;;;;;23.30;99.90;;;;;;5023860;28;19921;-81
2023/07/17 12:05:02;;;;;;;;;;;23.20;99.90;;;;;;5023946;28;19966;-81
2023/07/17 12:07:28;;;;;;;;;;;23.10;99.90;;;;;;5023496;28;19916;-81
2023/07/17 12:09:53;;;;;;;;;;;22.90;99.90;;;;;;5039398;28;22163;-81
2023/07/17 12:12:19;;;;;;;;;;;22.80;99.90;;;;;;5024897;28;20339;-82
2023/07/17 12:14:44;;;;;;;;;;;22.60;99.90;;;;;;5026083;28;19970;-81
2023/07/17 12:17:10;;;;;;;;;;;22.90;99.90;;;;;;5027870;28;19992;-80
2023/07/17 12:19:39;;;;;;;;;;;23.30;99.90;;;;;;5025653;28;19913;-79
2023/07/17 12:22:07;;;;;;;;;;;23.30;99.90;;;;;;5024081;28;19921;-79
2023/07/17 12:24:33;;;;;;;;;;;23.30;99.90;;;;;;5024983;28;19917;-80
2023/07/17 12:27:02;;;;;;;;;;;23.20;99.90;;;;;;5022180;28;20405;-81
2023/07/17 12:29:37;;;;;;;;;;;22.90;99.90;;;;;;5020455;28;19905;-81
2023/07/17 12:32:11;;;;;;;;;;;22.80;99.90;;;;;;4998351;28;19924;-81
2023/07/17 12:34:47;;;;;;;;;;;23.20;99.90;;;;;;5020233;28;19991;-81
2023/07/17 12:37:24;;;;;;;;;;;24.10;99.90;;;;;;4998919;28;19923;-81
2023/07/17 12:39:53;;;;;;;;;;;25.40;99.90;;;;;;5036019;28;19964;-80
2023/07/17 12:42:30;;;;;;;;;;;26.30;99.90;;;;;;5019298;28;19924;-81
2023/07/17 12:45:05;;;;;;;;;;;26.20;99.90;;;;;;5021055;28;19924;-81
2023/07/17 12:47:36;;;;;;;;;;;25.70;99.90;;;;;;4994661;28;20416;-81
2023/07/17 12:50:05;;;;;;;;;;;25.20;99.90;;;;;;4998154;28;19920;-81
2023/07/17 12:52:39;;;;;;;;;;;25.00;99.90;;;;;;5022392;28;20320;-80
2023/07/17 12:55:10;;;;;;;;;;;24.90;99.90;;;;;;5037403;28;19917;-81
2023/07/17 12:57:39;;;;;;;;;;;24.60;99.90;;;;;;5004332;28;20011;-82
2023/07/17 13:00:05;;;;;;;;;;;24.30;99.90;;;;;;5021570;28;19913;-81
2023/07/17 13:02:33;;;;;;;;;;;24.00;99.90;;;;;;5004837;28;20701;-82
2023/07/17 13:05:02;;;;;;;;;;;23.60;99.90;;;;;;5022357;28;19967;-79
2023/07/17 13:07:30;;;;;;;;;;;23.40;99.90;;;;;;4997957;28;19925;-80
2023/07/17 13:09:55;;;;;;;;;;;23.10;99.90;;;;;;5037825;28;19908;-80
2023/07/17 13:12:24;;;;;;;;;;;23.00;99.90;;;;;;5023330;28;19925;-81
2023/07/17 13:14:53;;;;;;;;;;;22.80;99.90;;;;;;5021893;28;19909;-84
2023/07/17 13:17:28;;;;;;;;;;;22.30;99.90;;;;;;5003036;28;19928;-89
2023/07/17 13:19:54;;;;;;;;;;;21.40;99.90;;;;;;5039972;28;19913;-88
2023/07/17 13:22:27;;;;;;;;;;;20.50;99.90;;;;;;5024460;28;19913;-87
2023/07/17 13:24:52;;;;;;;;;;;20.20;99.90;;;;;;5002702;28;19948;-88
2023/07/17 13:27:25;;;;;;;;;;;20.40;99.90;;;;;;5007138;28;19913;-88
2023/07/17 13:29:51;;;;;;;;;;;20.60;99.90;;;;;;5006523;28;20047;-88
2023/07/17 13:32:19;;;;;;;;;;;20.70;99.90;;;;;;5024412;28;19940;-84
2023/07/17 13:34:45;;;;;;;;;;;20.60;99.90;;;;;;5022799;28;19913;-83
2023/07/17 13:37:10;;;;;;;;;;;20.30;99.90;;;;;;5004858;28;20058;-84
2023/07/17 13:39:37;;;;;;;;;;;20.10;99.90;;;;;;5002131;28;20277;-84
2023/07/17 13:42:05;;;;;;;;;;;19.90;99.90;;;;;;5020701;28;19921;-85
2023/07/17 13:44:30;;;;;;;;;;;19.80;99.90;;;;;;5000539;28;19917;-84
2023/07/17 13:47:10;;;;;;;;;;;19.80;99.90;;;;;;5000038;28;19976;-85
2023/07/17 13:49:36;;;;;;;;;;;19.60;99.90;;;;;;5004542;28;20420;-84
2023/07/17 13:52:11;;;;;;;;;;;19.50;99.90;;;;;;5021660;28;19999;-84
2023/07/17 13:54:42;;;;;;;;;;;19.60;99.90;;;;;;5020826;28;19967;-84
2023/07/17 13:57:13;;;;;;;;;;;19.80;99.90;;;;;;5021854;28;19917;-84
2023/07/17 13:59:42;;;;;;;;;;;19.80;99.90;;;;;;5022807;28;19940;-84
2023/07/17 14:02:07;;;;;;;;;;;19.90;99.90;;;;;;5018140;28;19913;-84
2023/07/17 14:04:34;;;;;;;;;;;20.00;99.90;;;;;;5040808;28;19917;-85
2023/07/17 14:06:59;;;;;;;;;;;20.00;99.90;;;;;;5040870;28;19920;-84
2023/07/17 14:09:25;;;;;;;;;;;20.00;99.90;;;;;;5005641;28;19909;-83
2023/07/17 14:11:51;;;;;;;;;;;20.10;99.90;;;;;;4998938;28;20269;-83
2023/07/17 14:14:19;;;;;;;;;;;20.20;99.90;;;;;;5020685;28;19918;-83
2023/07/17 14:16:45;;;;;;;;;;;20.30;99.90;;;;;;5001344;28;19913;-83
2023/07/17 14:19:20;;;;;;;;;;;20.40;99.90;;;;;;5034135;28;19913;-83